Naniwa Maru No.21 — JG5648 — position and weather

sailwx.info

Track history (hours):
 
Tides and Currents Weather Stations Pressure Air Temp Water Temp Dewpoint Dewpoint Depression Visibility Wind Speed Wind Dir Waves Ship Positions

Naniwa Maru No.21

Last reported at 2017-Apr-23 08:13 UTC. Time now 2017-Apr-24 11:31 UTC.
Position N 34°36' E 135°04'.

Length 71 m; draft 5.2 m.

Type: Tanker. MMSI: 431301595.

Date/timePositionNaut miles runAvg speedWind from/ knotsBaromVisibWave heightAir tempDewpointWater temp
2017-Apr-23 08:13N 34°36' E 135°04'312.6
2017-Apr-23 07:57N 34°35' E 135°08'612.9
2017-Apr-23 07:30N 34°34' E 135°15'612.6
2017-Apr-23 07:00N 34°33' E 135°23'2 0.5
2017-Apr-23 01:41N 34°33' E 135°26'3 6.3
2017-Apr-23 01:14N 34°33' E 135°22'313.8
2017-Apr-23 01:00N 34°33' E 135°18'714.0
2017-Apr-23 00:30N 34°34' E 135°10'713.8
2017-Apr-22 23:59N 34°37' E 135°02'  
Track history (hours):
 
Tides and Currents Weather Stations Pressure Air Temp Water Temp Dewpoint Dewpoint Depression Visibility Wind Speed Wind Dir Waves Ship Positions

Naniwa Maru No.21

Last reported at 2017-Apr-23 08:13 UTC. Time now 2017-Apr-24 11:31 UTC.
Position N 34°36' E 135°04'.

Length 71 m; draft 5.2 m.

Type: Tanker. MMSI: 431301595.

Date/timePositionNaut miles runAvg speedWind from/ knotsBaromVisibWave heightAir tempDewpointWater temp
2017-Apr-23 08:13N 34°36' E 135°04'312.6
2017-Apr-23 07:57N 34°35' E 135°08'612.9
2017-Apr-23 07:30N 34°34' E 135°15'612.6
2017-Apr-23 07:00N 34°33' E 135°23'2 0.5
2017-Apr-23 01:41N 34°33' E 135°26'3 6.3
2017-Apr-23 01:14N 34°33' E 135°22'313.8
2017-Apr-23 01:00N 34°33' E 135°18'714.0
2017-Apr-23 00:30N 34°34' E 135°10'713.8
2017-Apr-22 23:59N 34°37' E 135°02'  

Dump ship's entire track history